sensor_id;sensor_type;location;lat;lon;timestamp;pressure;altitude;pressure_sealevel;temperature;humidity
16200;BME280;8207;52.494;4.654;2024-02-21T00:01:46;102097.84;;;7.87;100.00
16200;BME280;8207;52.494;4.654;2024-02-21T00:04:11;102084.69;;;7.84;100.00
16200;BME280;8207;52.494;4.654;2024-02-21T00:06:37;102094.56;;;7.83;100.00
16200;BME280;8207;52.494;4.654;2024-02-21T00:09:02;102096.28;;;7.84;100.00
16200;BME280;8207;52.494;4.654;2024-02-21T00:11:28;102093.69;;;7.83;100.00
16200;BME280;8207;52.494;4.654;2024-02-21T00:13:53;102104.31;;;7.84;100.00
16200;BME280;8207;52.494;4.654;2024-02-21T00:16:19;102099.91;;;7.83;100.00
16200;BME280;8207;52.494;4.654;2024-02-21T00:18:45;102097.97;;;7.85;100.00
16200;BME280;8207;52.494;4.654;2024-02-21T00:21:10;102085.41;;;7.86;100.00
16200;BME280;8207;52.494;4.654;2024-02-21T00:23:42;102086.41;;;7.85;100.00
16200;BME280;8207;52.494;4.654;2024-02-21T00:26:08;102093.59;;;7.84;100.00
16200;BME280;8207;52.494;4.654;2024-02-21T00:28:33;102088.09;;;7.86;100.00
16200;BME280;8207;52.494;4.654;2024-02-21T00:30:59;102097.13;;;7.85;100.00
16200;BME280;8207;52.494;4.654;2024-02-21T00:33:24;102100.53;;;7.87;100.00
16200;BME280;8207;52.494;4.654;2024-02-21T00:35:49;102089.94;;;7.85;100.00
16200;BME280;8207;52.494;4.654;2024-02-21T00:38:15;102087.13;;;7.87;100.00
16200;BME280;8207;52.494;4.654;2024-02-21T00:40:40;102080.78;;;7.88;100.00
16200;BME280;8207;52.494;4.654;2024-02-21T00:43:06;102088.81;;;7.88;100.00
16200;BME280;8207;52.494;4.654;2024-02-21T00:45:32;102089.56;;;7.90;100.00
16200;BME280;8207;52.494;4.654;2024-02-21T00:47:58;102086.75;;;7.91;100.00
16200;BME280;8207;52.494;4.654;2024-02-21T00:50:23;102078.00;;;7.89;100.00
16200;BME280;8207;52.494;4.654;2024-02-21T00:52:48;102075.06;;;7.92;100.00
16200;BME280;8207;52.494;4.654;2024-02-21T00:55:14;102067.97;;;7.91;100.00
16200;BME280;8207;52.494;4.654;2024-02-21T00:57:39;102068.88;;;7.92;100.00
16200;BME280;8207;52.494;4.654;2024-02-21T01:00:05;102064.44;;;7.91;100.00
16200;BME280;8207;52.494;4.654;2024-02-21T01:02:30;102059.00;;;7.92;100.00
16200;BME280;8207;52.494;4.654;2024-02-21T01:04:59;102057.16;;;7.93;100.00
16200;BME280;8207;52.494;4.654;2024-02-21T01:07:24;102048.13;;;7.94;100.00
16200;BME280;8207;52.494;4.654;2024-02-21T01:09:50;102053.50;;;7.94;100.00
16200;BME280;8207;52.494;4.654;2024-02-21T01:12:16;102055.31;;;7.93;100.00
16200;BME280;8207;52.494;4.654;2024-02-21T01:14:42;102049.22;;;7.91;100.00
16200;BME280;8207;52.494;4.654;2024-02-21T01:17:07;102040.22;;;7.92;100.00
16200;BME280;8207;52.494;4.654;2024-02-21T01:19:33;102039.38;;;7.92;100.00
16200;BME280;8207;52.494;4.654;2024-02-21T01:21:58;102034.03;;;7.92;100.00
16200;BME280;8207;52.494;4.654;2024-02-21T01:24:23;102031.34;;;7.92;100.00
16200;BME280;8207;52.494;4.654;2024-02-21T01:26:49;102031.34;;;7.92;100.00
16200;BME280;8207;52.494;4.654;2024-02-21T01:29:14;102024.16;;;7.92;100.00
16200;BME280;8207;52.494;4.654;2024-02-21T01:31:40;102016.22;;;7.91;100.00
16200;BME280;8207;52.494;4.654;2024-02-21T01:34:05;102022.19;;;7.94;100.00
16200;BME280;8207;52.494;4.654;2024-02-21T01:36:30;102009.75;;;7.93;100.00
16200;BME280;8207;52.494;4.654;2024-02-21T01:38:56;102007.94;;;7.94;100.00
16200;BME280;8207;52.494;4.654;2024-02-21T01:41:21;102006.22;;;7.93;100.00
16200;BME280;8207;52.494;4.654;2024-02-21T01:43:46;102005.84;;;7.98;100.00
16200;BME280;8207;52.494;4.654;2024-02-21T01:46:12;102007.53;;;7.99;100.00
16200;BME280;8207;52.494;4.654;2024-02-21T01:48:37;101998.78;;;7.97;100.00
16200;BME280;8207;52.494;4.654;2024-02-21T01:51:04;102013.88;;;7.98;100.00
16200;BME280;8207;52.494;4.654;2024-02-21T01:53:30;102014.03;;;7.96;100.00
16200;BME280;8207;52.494;4.654;2024-02-21T01:55:58;102028.13;;;7.98;100.00
16200;BME280;8207;52.494;4.654;2024-02-21T01:58:24;102016.47;;;7.99;100.00
16200;BME280;8207;52.494;4.654;2024-02-21T02:00:50;102007.53;;;7.99;100.00
16200;BME280;8207;52.494;4.654;2024-02-21T02:03:16;102004.16;;;7.97;100.00
16200;BME280;8207;52.494;4.654;2024-02-21T02:05:49;101999.63;;;7.97;100.00
16200;BME280;8207;52.494;4.654;2024-02-21T02:08:15;102000.50;;;7.98;100.00
16200;BME280;8207;52.494;4.654;2024-02-21T02:10:41;102001.34;;;7.98;100.00
16200;BME280;8207;52.494;4.654;2024-02-21T02:13:07;102001.34;;;7.98;100.00
16200;BME280;8207;52.494;4.654;2024-02-21T02:15:49;101992.34;;;7.99;100.00
16200;BME280;8207;52.494;4.654;2024-02-21T02:18:16;101989.66;;;7.99;100.00
16200;BME280;8207;52.494;4.654;2024-02-21T02:20:43;101992.34;;;7.99;100.00
16200;BME280;8207;52.494;4.654;2024-02-21T02:25:50;101968.91;;;8.01;100.00
16200;BME280;8207;52.494;4.654;2024-02-21T02:28:17;101965.53;;;7.99;100.00
16200;BME280;8207;52.494;4.654;2024-02-21T02:30:43;101975.97;;;8.02;100.00
16200;BME280;8207;52.494;4.654;2024-02-21T02:33:08;101966.84;;;8.05;100.00
16200;BME280;8207;52.494;4.654;2024-02-21T02:35:34;101964.91;;;8.07;100.00
16200;BME280;8207;52.494;4.654;2024-02-21T02:38:01;101961.22;;;8.08;100.00
16200;BME280;8207;52.494;4.654;2024-02-21T02:40:27;101958.41;;;8.09;100.00
16200;BME280;8207;52.494;4.654;2024-02-21T02:42:52;101954.88;;;8.09;100.00
16200;BME280;8207;52.494;4.654;2024-02-21T02:45:21;101950.66;;;8.06;100.00
16200;BME280;8207;52.494;4.654;2024-02-21T02:47:48;101955.88;;;8.08;100.00
16200;BME280;8207;52.494;4.654;2024-02-21T02:50:14;101959.41;;;8.08;100.00
16200;BME280;8207;52.494;4.654;2024-02-21T02:52:39;101944.28;;;8.07;100.00
16200;BME280;8207;52.494;4.654;2024-02-21T02:55:05;101956.84;;;8.07;100.00
16200;BME280;8207;52.494;4.654;2024-02-21T02:57:31;101948.81;;;8.07;100.00
16200;BME280;8207;52.494;4.654;2024-02-21T02:59:56;101938.19;;;8.05;100.00
16200;BME280;8207;52.494;4.654;2024-02-21T03:02:22;101933.81;;;8.04;100.00
16200;BME280;8207;52.494;4.654;2024-02-21T03:04:48;101928.06;;;8.09;100.00
16200;BME280;8207;52.494;4.654;2024-02-21T03:07:14;101920.88;;;8.09;100.00
16200;BME280;8207;52.494;4.654;2024-02-21T03:09:40;101906.78;;;8.07;100.00
16200;BME280;8207;52.494;4.654;2024-02-21T03:12:06;101906.78;;;8.07;100.00
16200;BME280;8207;52.494;4.654;2024-02-21T03:14:32;101895.19;;;8.07;100.00
16200;BME280;8207;52.494;4.654;2024-02-21T03:17:00;101894.22;;;8.08;100.00
16200;BME280;8207;52.494;4.654;2024-02-21T03:19:26;101897.03;;;8.06;100.00
16200;BME280;8207;52.494;4.654;2024-02-21T03:21:52;101888.13;;;8.06;100.00
16200;BME280;8207;52.494;4.654;2024-02-21T03:24:18;101886.56;;;8.03;100.00
16200;BME280;8207;52.494;4.654;2024-02-21T03:26:44;101880.47;;;8.01;100.00
16200;BME280;8207;52.494;4.654;2024-02-21T03:29:10;101879.63;;;8.01;100.00
16200;BME280;8207;52.494;4.654;2024-02-21T03:31:36;101877.09;;;7.99;100.00
16200;BME280;8207;52.494;4.654;2024-02-21T03:34:02;101872.69;;;7.98;100.00
16200;BME280;8207;52.494;4.654;2024-02-21T03:36:27;101881.94;;;7.94;100.00
16200;BME280;8207;52.494;4.654;2024-02-21T03:38:54;101876.50;;;7.96;100.00
16200;BME280;8207;52.494;4.654;2024-02-21T03:41:19;101857.13;;;7.92;100.00
16200;BME280;8207;52.494;4.654;2024-02-21T03:43:45;101867.84;;;7.92;100.00
16200;BME280;8207;52.494;4.654;2024-02-21T03:46:10;101854.44;;;7.92;100.00
16200;BME280;8207;52.494;4.654;2024-02-21T03:48:36;101847.38;;;7.91;100.00
16200;BME280;8207;52.494;4.654;2024-02-21T03:51:02;101847.25;;;7.92;100.00
16200;BME280;8207;52.494;4.654;2024-02-21T03:53:27;101836.53;;;7.92;100.00
16200;BME280;8207;52.494;4.654;2024-02-21T03:55:53;101838.47;;;7.90;100.00
16200;BME280;8207;52.494;4.654;2024-02-21T03:58:19;101836.66;;;7.91;100.00
16200;BME280;8207;52.494;4.654;2024-02-21T04:00:45;101842.84;;;7.91;100.00
16200;BME280;8207;52.494;4.654;2024-02-21T04:03:10;101840.06;;;7.93;100.00
16200;BME280;8207;52.494;4.654;2024-02-21T04:05:35;101851.78;;;7.92;100.00
16200;BME280;8207;52.494;4.654;2024-02-21T04:08:04;101847.38;;;7.91;100.00
16200;BME280;8207;52.494;4.654;2024-02-21T04:10:30;101847.25;;;7.92;100.00
16200;BME280;8207;52.494;4.654;2024-02-21T04:12:55;101857.97;;;7.92;100.00
16200;BME280;8207;52.494;4.654;2024-02-21T04:15:20;101855.28;;;7.92;100.00
16200;BME280;8207;52.494;4.654;2024-02-21T04:17:46;101851.78;;;7.92;100.00
16200;BME280;8207;52.494;4.654;2024-02-21T04:20:15;101854.44;;;7.92;100.00
16200;BME280;8207;52.494;4.654;2024-02-21T04:22:43;101853.47;;;7.93;100.00
16200;BME280;8207;52.494;4.654;2024-02-21T04:25:09;101851.63;;;7.93;100.00
16200;BME280;8207;52.494;4.654;2024-02-21T04:27:34;101849.78;;;7.94;100.00
16200;BME280;8207;52.494;4.654;2024-02-21T04:29:59;101838.47;;;7.90;100.00
16200;BME280;8207;52.494;4.654;2024-02-21T04:32:25;101838.38;;;7.92;100.00
16200;BME280;8207;52.494;4.654;2024-02-21T04:34:52;101824.97;;;7.92;100.00
16200;BME280;8207;52.494;4.654;2024-02-21T04:37:18;101821.56;;;7.90;100.00
16200;BME280;8207;52.494;4.654;2024-02-21T04:39:44;101817.78;;;7.92;100.00
16200;BME280;8207;52.494;4.654;2024-02-21T04:42:09;101821.31;;;7.93;100.00
16200;BME280;8207;52.494;4.654;2024-02-21T04:44:34;101818.72;;;7.91;100.00
16200;BME280;8207;52.494;4.654;2024-02-21T04:47:00;101826.66;;;7.93;100.00
16200;BME280;8207;52.494;4.654;2024-02-21T04:49:26;101822.28;;;7.92;100.00
16200;BME280;8207;52.494;4.654;2024-02-21T04:51:51;101817.63;;;7.94;100.00
16200;BME280;8207;52.494;4.654;2024-02-21T04:54:16;101816.78;;;7.93;100.00
16200;BME280;8207;52.494;4.654;2024-02-21T04:56:42;101807.06;;;7.92;100.00
16200;BME280;8207;52.494;4.654;2024-02-21T04:59:07;101806.06;;;7.93;100.00
16200;BME280;8207;52.494;4.654;2024-02-21T05:01:33;101790.13;;;7.92;100.00
16200;BME280;8207;52.494;4.654;2024-02-21T05:03:58;101790.84;;;7.94;100.00
16200;BME280;8207;52.494;4.654;2024-02-21T05:06:23;101789.13;;;7.93;100.00
16200;BME280;8207;52.494;4.654;2024-02-21T05:08:49;101781.94;;;7.93;100.00
16200;BME280;8207;52.494;4.654;2024-02-21T05:11:14;101781.94;;;7.93;100.00
16200;BME280;8207;52.494;4.654;2024-02-21T05:13:39;101774.75;;;7.94;100.00
16200;BME280;8207;52.494;4.654;2024-02-21T05:16:05;101774.91;;;7.92;100.00
16200;BME280;8207;52.494;4.654;2024-02-21T05:18:31;101765.03;;;7.93;100.00
16200;BME280;8207;52.494;4.654;2024-02-21T05:20:56;101770.25;;;7.94;100.00
16200;BME280;8207;52.494;4.654;2024-02-21T05:23:22;101750.78;;;7.92;100.00
16200;BME280;8207;52.494;4.654;2024-02-21T05:25:47;101751.47;;;7.94;100.00
16200;BME280;8207;52.494;4.654;2024-02-21T05:28:12;101736.53;;;7.92;100.00
16200;BME280;8207;52.494;4.654;2024-02-21T05:30:38;101727.63;;;7.91;100.00
16200;BME280;8207;52.494;4.654;2024-02-21T05:33:07;101716.31;;;7.88;100.00
16200;BME280;8207;52.494;4.654;2024-02-21T05:35:34;101711.94;;;7.87;100.00
16200;BME280;8207;52.494;4.654;2024-02-21T05:37:59;101721.81;;;7.86;100.00
16200;BME280;8207;52.494;4.654;2024-02-21T05:40:25;101704.88;;;7.86;100.00
16200;BME280;8207;52.494;4.654;2024-02-21T05:42:51;101700.78;;;7.82;100.00
16200;BME280;8207;52.494;4.654;2024-02-21T05:45:17;101701.38;;;7.85;100.00
16200;BME280;8207;52.494;4.654;2024-02-21T05:47:42;101697.09;;;7.83;100.00
16200;BME280;8207;52.494;4.654;2024-02-21T05:50:09;101691.06;;;7.81;100.00
16200;BME280;8207;52.494;4.654;2024-02-21T05:52:34;101688.63;;;7.78;100.00
16200;BME280;8207;52.494;4.654;2024-02-21T05:54:59;101681.56;;;7.77;100.00
16200;BME280;8207;52.494;4.654;2024-02-21T05:57:25;101686.06;;;7.76;100.00
16200;BME280;8207;52.494;4.654;2024-02-21T05:59:50;101685.81;;;7.79;100.00
16200;BME280;8207;52.494;4.654;2024-02-21T06:02:15;101686.53;;;7.81;100.00
16200;BME280;8207;52.494;4.654;2024-02-21T06:04:41;101677.50;;;7.82;100.00
16200;BME280;8207;52.494;4.654;2024-02-21T06:07:09;101686.53;;;7.81;100.00
16200;BME280;8207;52.494;4.654;2024-02-21T06:09:34;101690.91;;;7.82;100.00
16200;BME280;8207;52.494;4.654;2024-02-21T06:12:00;101696.25;;;7.82;100.00
16200;BME280;8207;52.494;4.654;2024-02-21T06:14:25;101690.75;;;7.84;100.00
16200;BME280;8207;52.494;4.654;2024-02-21T06:16:51;101698.78;;;7.84;100.00
16200;BME280;8207;52.494;4.654;2024-02-21T06:19:16;101706.72;;;7.85;100.00
16200;BME280;8207;52.494;4.654;2024-02-21T06:21:41;101709.25;;;7.87;100.00
16200;BME280;8207;52.494;4.654;2024-02-21T06:24:07;101708.41;;;7.86;100.00
16200;BME280;8207;52.494;4.654;2024-02-21T06:26:32;101706.47;;;7.88;100.00
16200;BME280;8207;52.494;4.654;2024-02-21T06:28:58;101706.47;;;7.88;100.00
16200;BME280;8207;52.494;4.654;2024-02-21T06:31:25;101712.41;;;7.92;100.00
16200;BME280;8207;52.494;4.654;2024-02-21T06:33:50;101699.13;;;7.90;100.00
16200;BME280;8207;52.494;4.654;2024-02-21T06:36:15;101699.13;;;7.90;100.00
16200;BME280;8207;52.494;4.654;2024-02-21T06:38:41;101689.41;;;7.89;100.00
16200;BME280;8207;52.494;4.654;2024-02-21T06:41:06;101690.25;;;7.90;100.00
16200;BME280;8207;52.494;4.654;2024-02-21T06:43:39;101694.59;;;7.91;100.00
16200;BME280;8207;52.494;4.654;2024-02-21T06:46:04;101694.59;;;7.91;100.00
16200;BME280;8207;52.494;4.654;2024-02-21T06:48:29;101699.72;;;7.94;100.00
16200;BME280;8207;52.494;4.654;2024-02-21T06:50:55;101690.81;;;7.93;100.00
16200;BME280;8207;52.494;4.654;2024-02-21T06:53:20;101689.97;;;7.93;100.00
16200;BME280;8207;52.494;4.654;2024-02-21T06:55:47;101688.00;;;7.95;100.00
16200;BME280;8207;52.494;4.654;2024-02-21T06:58:12;101674.59;;;7.95;100.00
16200;BME280;8207;52.494;4.654;2024-02-21T07:00:39;101671.91;;;7.95;100.00
16200;BME280;8207;52.494;4.654;2024-02-21T07:03:05;101671.06;;;7.94;100.00
16200;BME280;8207;52.494;4.654;2024-02-21T07:05:30;101668.13;;;7.98;100.00
16200;BME280;8207;52.494;4.654;2024-02-21T07:07:56;101657.41;;;7.98;100.00
16200;BME280;8207;52.494;4.654;2024-02-21T07:10:21;101645.84;;;7.97;100.00
16200;BME280;8207;52.494;4.654;2024-02-21T07:12:46;101644.84;;;7.98;100.00
16200;BME280;8207;52.494;4.654;2024-02-21T07:15:12;101650.94;;;8.00;100.00
16200;BME280;8207;52.494;4.654;2024-02-21T07:17:37;101646.28;;;8.02;100.00
16200;BME280;8207;52.494;4.654;2024-02-21T07:20:03;101641.91;;;8.01;100.00
16200;BME280;8207;52.494;4.654;2024-02-21T07:22:28;101640.91;;;8.02;100.00
16200;BME280;8207;52.494;4.654;2024-02-21T07:24:53;101632.88;;;8.02;100.00
16200;BME280;8207;52.494;4.654;2024-02-21T07:27:19;101629.34;;;8.02;100.00
16200;BME280;8207;52.494;4.654;2024-02-21T07:29:44;101616.78;;;8.02;100.00
16200;BME280;8207;52.494;4.654;2024-02-21T07:32:12;101610.22;;;8.06;100.00
16200;BME280;8207;52.494;4.654;2024-02-21T07:34:38;101612.00;;;8.06;100.00
16200;BME280;8207;52.494;4.654;2024-02-21T07:37:03;101600.34;;;8.07;100.00
16200;BME280;8207;52.494;4.654;2024-02-21T07:39:28;101597.50;;;8.08;100.00
16200;BME280;8207;52.494;4.654;2024-02-21T07:41:54;101600.34;;;8.07;100.00
16200;BME280;8207;52.494;4.654;2024-02-21T07:44:19;101604.44;;;8.11;100.00
16200;BME280;8207;52.494;4.654;2024-02-21T07:46:44;101603.44;;;8.12;100.00
16200;BME280;8207;52.494;4.654;2024-02-21T07:49:10;101606.97;;;8.12;100.00
16200;BME280;8207;52.494;4.654;2024-02-21T07:51:35;101603.16;;;8.15;100.00
16200;BME280;8207;52.494;4.654;2024-02-21T07:54:01;101605.00;;;8.14;100.00
16200;BME280;8207;52.494;4.654;2024-02-21T07:56:28;101608.38;;;8.16;100.00
16200;BME280;8207;52.494;4.654;2024-02-21T07:58:54;101600.22;;;8.18;100.00
16200;BME280;8207;52.494;4.654;2024-02-21T08:01:19;101599.13;;;8.21;100.00
16200;BME280;8207;52.494;4.654;2024-02-21T08:03:47;101597.41;;;8.20;100.00
16200;BME280;8207;52.494;4.654;2024-02-21T08:06:13;101597.00;;;8.24;100.00
16200;BME280;8207;52.494;4.654;2024-02-21T08:08:39;101593.44;;;8.24;100.00
16200;BME280;8207;52.494;4.654;2024-02-21T08:11:04;101600.53;;;8.25;100.00
16200;BME280;8207;52.494;4.654;2024-02-21T08:13:30;101590.50;;;8.27;100.00
16200;BME280;8207;52.494;4.654;2024-02-21T08:15:56;101584.03;;;8.29;100.00
16200;BME280;8207;52.494;4.654;2024-02-21T08:18:22;101575.97;;;8.29;100.00
16200;BME280;8207;52.494;4.654;2024-02-21T08:20:47;101572.44;;;8.29;100.00
16200;BME280;8207;52.494;4.654;2024-02-21T08:23:15;101562.41;;;8.31;100.00
16200;BME280;8207;52.494;4.654;2024-02-21T08:25:42;101564.13;;;8.32;100.00
16200;BME280;8207;52.494;4.654;2024-02-21T08:28:07;101560.47;;;8.33;100.00
16200;BME280;8207;52.494;4.654;2024-02-21T08:30:33;101565.44;;;8.37;100.00
16200;BME280;8207;52.494;4.654;2024-02-21T08:32:59;101549.78;;;8.43;100.00
16200;BME280;8207;52.494;4.654;2024-02-21T08:35:24;101547.94;;;8.43;100.00
16200;BME280;8207;52.494;4.654;2024-02-21T08:37:50;101547.94;;;8.43;100.00
16200;BME280;8207;52.494;4.654;2024-02-21T08:40:15;101555.72;;;8.46;100.00
16200;BME280;8207;52.494;4.654;2024-02-21T08:42:44;101552.78;;;8.49;100.00
16200;BME280;8207;52.494;4.654;2024-02-21T08:45:10;101552.63;;;8.51;100.00
16200;BME280;8207;52.494;4.654;2024-02-21T08:47:36;101549.78;;;8.52;100.00
16200;BME280;8207;52.494;4.654;2024-02-21T08:50:02;101543.44;;;8.53;100.00
16200;BME280;8207;52.494;4.654;2024-02-21T08:52:27;101550.94;;;8.50;100.00
16200;BME280;8207;52.494;4.654;2024-02-21T08:54:53;101542.47;;;8.54;100.00
16200;BME280;8207;52.494;4.654;2024-02-21T08:57:19;101544.97;;;8.56;100.00
16200;BME280;8207;52.494;4.654;2024-02-21T08:59:44;101527.19;;;8.55;100.00
16200;BME280;8207;52.494;4.654;2024-02-21T09:02:10;101533.84;;;8.60;100.00
16200;BME280;8207;52.494;4.654;2024-02-21T09:04:35;101518.44;;;8.62;100.00
16200;BME280;8207;52.494;4.654;2024-02-21T09:07:00;101516.31;;;8.66;100.00
16200;BME280;8207;52.494;4.654;2024-02-21T09:09:26;101508.84;;;8.70;100.00
16200;BME280;8207;52.494;4.654;2024-02-21T09:11:53;101512.25;;;8.72;100.00
16200;BME280;8207;52.494;4.654;2024-02-21T09:14:18;101503.47;;;8.70;100.00
16200;BME280;8207;52.494;4.654;2024-02-21T09:16:44;101486.81;;;8.76;100.00
16200;BME280;8207;52.494;4.654;2024-02-21T09:19:09;101486.53;;;8.79;100.00
16200;BME280;8207;52.494;4.654;2024-02-21T09:21:37;101482.72;;;8.81;100.00
16200;BME280;8207;52.494;4.654;2024-02-21T09:24:02;101477.75;;;8.86;100.00
16200;BME280;8207;52.494;4.654;2024-02-21T09:26:28;101470.13;;;8.92;100.00
16200;BME280;8207;52.494;4.654;2024-02-21T09:28:53;101452.03;;;8.94;100.00
16200;BME280;8207;52.494;4.654;2024-02-21T09:31:19;101440.19;;;8.96;100.00
16200;BME280;8207;52.494;4.654;2024-02-21T09:33:44;101439.19;;;8.97;100.00
16200;BME280;8207;52.494;4.654;2024-02-21T09:36:10;101448.63;;;9.01;100.00
16200;BME280;8207;52.494;4.654;2024-02-21T09:38:35;101437.22;;;8.99;100.00
16200;BME280;8207;52.494;4.654;2024-02-21T09:43:50;101424.47;;;9.01;100.00
16200;BME280;8207;52.494;4.654;2024-02-21T09:46:19;101418.41;;;8.99;100.00
16200;BME280;8207;52.494;4.654;2024-02-21T09:51:41;101409.09;;;8.94;100.00
16200;BME280;8207;52.494;4.654;2024-02-21T09:54:10;101404.00;;;9.00;100.00
16200;BME280;8207;52.494;4.654;2024-02-21T09:56:35;101395.66;;;9.03;100.00
16200;BME280;8207;52.494;4.654;2024-02-21T09:59:01;101396.22;;;9.07;100.00
16200;BME280;8207;52.494;4.654;2024-02-21T10:01:30;101397.72;;;9.09;100.00
16200;BME280;8207;52.494;4.654;2024-02-21T10:03:57;101380.50;;;9.12;100.00
16200;BME280;8207;52.494;4.654;2024-02-21T10:06:22;101382.34;;;9.11;100.00
16200;BME280;8207;52.494;4.654;2024-02-21T10:08:54;101374.66;;;9.17;100.00
16200;BME280;8207;52.494;4.654;2024-02-21T10:11:23;101367.22;;;9.10;100.00
16200;BME280;8207;52.494;4.654;2024-02-21T10:13:49;101363.09;;;9.16;100.00
16200;BME280;8207;52.494;4.654;2024-02-21T10:16:15;101364.63;;;9.19;100.00
16200;BME280;8207;52.494;4.654;2024-02-21T10:18:40;101355.75;;;9.18;100.00
16200;BME280;8207;52.494;4.654;2024-02-21T10:21:07;101351.38;;;9.17;100.00
16200;BME280;8207;52.494;4.654;2024-02-21T10:23:46;101346.56;;;9.21;100.00
16200;BME280;8207;52.494;4.654;2024-02-21T10:26:12;101342.41;;;9.26;100.00
16200;BME280;8207;52.494;4.654;2024-02-21T10:28:38;101336.91;;;9.28;100.00
16200;BME280;8207;52.494;4.654;2024-02-21T10:31:11;101332.13;;;9.22;100.00
16200;BME280;8207;52.494;4.654;2024-02-21T10:33:37;101324.34;;;9.19;100.00
16200;BME280;8207;52.494;4.654;2024-02-21T10:36:10;101325.16;;;9.29;100.00
16200;BME280;8207;52.494;4.654;2024-02-21T10:38:39;101324.59;;;9.25;100.00
16200;BME280;8207;52.494;4.654;2024-02-21T10:41:05;101322.38;;;9.21;100.00
16200;BME280;8207;52.494;4.654;2024-02-21T10:43:39;101319.38;;;9.24;100.00
16200;BME280;8207;52.494;4.654;2024-02-21T10:46:08;101313.56;;;9.28;100.00
16200;BME280;8207;52.494;4.654;2024-02-21T10:48:44;101316.25;;;9.28;100.00
16200;BME280;8207;52.494;4.654;2024-02-21T10:51:18;101300.16;;;9.28;100.00
16200;BME280;8207;52.494;4.654;2024-02-21T10:53:45;101294.22;;;9.25;100.00
16200;BME280;8207;52.494;4.654;2024-02-21T10:56:31;101293.94;;;9.28;100.00
16200;BME280;8207;52.494;4.654;2024-02-21T10:59:01;101281.09;;;9.22;100.00
16200;BME280;8207;52.494;4.654;2024-02-21T11:01:28;101281.66;;;9.25;100.00
16200;BME280;8207;52.494;4.654;2024-02-21T11:03:58;101289.84;;;9.24;100.00
16200;BME280;8207;52.494;4.654;2024-02-21T11:06:24;101285.47;;;9.23;100.00
16200;BME280;8207;52.494;4.654;2024-02-21T11:09:04;101291.13;;;9.20;100.00
16200;BME280;8207;52.494;4.654;2024-02-21T11:11:40;101271.13;;;9.14;100.00
16200;BME280;8207;52.494;4.654;2024-02-21T11:14:19;101255.56;;;9.18;100.00
16200;BME280;8207;52.494;4.654;2024-02-21T11:16:45;101249.00;;;9.20;100.00
16200;BME280;8207;52.494;4.654;2024-02-21T11:19:21;101246.03;;;9.23;100.00
16200;BME280;8207;52.494;4.654;2024-02-21T11:21:47;101236.81;;;9.26;100.00
16200;BME280;8207;52.494;4.654;2024-02-21T11:24:13;101247.56;;;9.26;100.00
16200;BME280;8207;52.494;4.654;2024-02-21T11:26:39;101236.91;;;9.34;100.00
16200;BME280;8207;52.494;4.654;2024-02-21T11:29:07;101240.97;;;9.38;100.00
16200;BME280;8207;52.494;4.654;2024-02-21T11:31:42;101236.00;;;9.43;100.00
16200;BME280;8207;52.494;4.654;2024-02-21T11:34:11;101237.69;;;9.44;100.00
16200;BME280;8207;52.494;4.654;2024-02-21T11:36:47;101233.78;;;9.39;100.00
16200;BME280;8207;52.494;4.654;2024-02-21T11:39:19;101200.00;;;9.36;100.00
16200;BME280;8207;52.494;4.654;2024-02-21T11:42:01;101190.41;;;9.33;100.00
16200;BME280;8207;52.494;4.654;2024-02-21T11:44:26;101184.50;;;9.30;100.00
16200;BME280;8207;52.494;4.654;2024-02-21T11:46:52;101177.38;;;9.39;100.00
16200;BME280;8207;52.494;4.654;2024-02-21T11:49:17;101172.13;;;9.55;100.00
16200;BME280;8207;52.494;4.654;2024-02-21T11:51:42;101168.97;;;9.59;100.00
16200;BME280;8207;52.494;4.654;2024-02-21T11:54:08;101156.84;;;9.55;100.00
16200;BME280;8207;52.494;4.654;2024-02-21T11:56:35;101148.66;;;9.57;100.00
16200;BME280;8207;52.494;4.654;2024-02-21T11:59:00;101134.38;;;9.56;100.00
16200;BME280;8207;52.494;4.654;2024-02-21T12:01:25;101132.66;;;9.55;100.00
16200;BME280;8207;52.494;4.654;2024-02-21T12:03:51;101126.94;;;9.50;100.00
16200;BME280;8207;52.494;4.654;2024-02-21T12:06:16;101121.16;;;9.45;100.00
16200;BME280;8207;52.494;4.654;2024-02-21T12:08:46;101114.03;;;9.54;100.00
16200;BME280;8207;52.494;4.654;2024-02-21T12:11:22;101100.81;;;9.60;100.00
16200;BME280;8207;52.494;4.654;2024-02-21T12:13:58;101091.75;;;9.61;100.00
16200;BME280;8207;52.494;4.654;2024-02-21T12:16:25;101092.09;;;9.67;100.00
16200;BME280;8207;52.494;4.654;2024-02-21T12:18:56;101087.75;;;9.66;100.00
16200;BME280;8207;52.494;4.654;2024-02-21T12:21:34;101081.53;;;9.65;100.00
16200;BME280;8207;52.494;4.654;2024-02-21T12:24:12;101076.47;;;9.62;100.00
16200;BME280;8207;52.494;4.654;2024-02-21T12:26:38;101060.88;;;9.66;100.00
16200;BME280;8207;52.494;4.654;2024-02-21T12:29:03;101059.09;;;9.74;100.00
16200;BME280;8207;52.494;4.654;2024-02-21T12:31:28;101038.25;;;9.76;100.00
16200;BME280;8207;52.494;4.654;2024-02-21T12:33:54;101020.69;;;9.90;100.00
16200;BME280;8207;52.494;4.654;2024-02-21T12:36:19;101023.72;;;9.95;100.00
16200;BME280;8207;52.494;4.654;2024-02-21T12:38:45;101010.34;;;10.12;100.00
16200;BME280;8207;52.494;4.654;2024-02-21T12:41:11;101004.66;;;10.15;99.93
16200;BME280;8207;52.494;4.654;2024-02-21T12:43:37;101001.44;;;10.11;99.11
16200;BME280;8207;52.494;4.654;2024-02-21T12:46:03;100996.72;;;10.05;99.25
16200;BME280;8207;52.494;4.654;2024-02-21T12:48:28;100992.16;;;10.05;99.33
16200;BME280;8207;52.494;4.654;2024-02-21T12:50:54;100987.97;;;10.03;99.11
16200;BME280;8207;52.494;4.654;2024-02-21T12:53:19;100978.06;;;10.03;100.00
16200;BME280;8207;52.494;4.654;2024-02-21T12:55:47;100971.28;;;9.91;99.24
16200;BME280;8207;52.494;4.654;2024-02-21T12:58:14;100957.38;;;9.96;99.88
16200;BME280;8207;52.494;4.654;2024-02-21T13:00:40;100949.97;;;9.98;98.57
16200;BME280;8207;52.494;4.654;2024-02-21T13:03:05;100936.91;;;10.03;99.44
16200;BME280;8207;52.494;4.654;2024-02-21T13:05:31;100927.63;;;10.05;99.14